APL New York — 9V9916 — position and weather

sailwx.info

Track history (hours):
 
Tides and Currents Weather Stations Pressure Air Temp Water Temp Dewpoint Dewpoint Depression Visibility Wind Speed Wind Dir Waves Ship Positions

APL New York

Last reported at 2017-Nov-20 00:26 UTC. Time now 2017-Nov-24 07:13 UTC.
Position N 31°22' E 121°35'.

Length 328 m; draft 10.5 m.

Type: Ship (hazmat cat A). MMSI: 566879000.

Date/timePositionNaut miles runAvg speedWind from/ knotsBaromVisibWave heightAir tempDewpointWater temp
2017-Nov-20 00:26N 31°22' E 121°35'0 0.0
2017-Nov-19 23:59N 31°22' E 121°35'0 0.0
2017-Nov-19 23:29N 31°22' E 121°35'0 0.0
2017-Nov-19 22:59N 31°22' E 121°35'0 0.0
2017-Nov-19 22:23N 31°22' E 121°35'0 0.0
2017-Nov-19 21:59N 31°22' E 121°35'0 0.0
2017-Nov-19 21:26N 31°22' E 121°35'0 0.0
2017-Nov-19 20:59N 31°22' E 121°35'0 0.0
2017-Nov-19 20:29N 31°22' E 121°35'0 0.0
2017-Nov-19 19:56N 31°22' E 121°35'0 0.0
2017-Nov-19 19:29N 31°22' E 121°35'0 0.0
2017-Nov-19 18:59N 31°22' E 121°35'0 0.0
2017-Nov-19 18:29N 31°22' E 121°35'0 0.0
2017-Nov-19 17:59N 31°22' E 121°35'0 0.4
2017-Nov-19 17:30N 31°23' E 121°35'0 0.9
2017-Nov-19 17:00N 31°23' E 121°34'0 1.0
2017-Nov-19 16:30N 31°23' E 121°35'4 8.3
2017-Nov-19 16:00N 31°21' E 121°39'510.8
2017-Nov-19 15:30N 31°19' E 121°45'5 9.9
2017-Nov-19 15:00N 31°17' E 121°50'510.4
2017-Nov-19 14:30N 31°15' E 121°56'611.1
2017-Nov-19 14:00N 31°14' E 122°02'611.1
2017-Nov-19 13:30N 31°12' E 122°08'510.9
2017-Nov-19 13:00N 31°09' E 122°13'611.1
2017-Nov-19 12:28N 31°06' E 122°20'612.0
2017-Nov-19 11:57N 31°08' E 122°27'  
2017-Nov-12 14:06N 34°57' E 139°27'215.2
2017-Nov-12 14:00N 34°58' E 139°29'815.5
2017-Nov-12 13:30N 35°02' E 139°37'816.0
2017-Nov-12 13:00N 35°07' E 139°45'613.0
2017-Nov-12 12:30N 35°13' E 139°46'611.7
2017-Nov-12 12:00N 35°19' E 139°44'611.5
2017-Nov-12 11:30N 35°24' E 139°43'713.6
2017-Nov-12 11:00N 35°29' E 139°50'612.4
2017-Nov-12 10:30N 35°35' E 139°48'2 3.5
2017-Nov-12 09:50N 35°37' E 139°47'0 0.0
2017-Nov-12 09:20N 35°37' E 139°47'0 0.1
2017-Nov-12 08:56N 35°37' E 139°47'0 0.0
2017-Nov-12 08:26N 35°37' E 139°47'0 0.0
2017-Nov-12 07:56N 35°37' E 139°47'0 0.1
2017-Nov-12 07:26N 35°37' E 139°47'0 0.1
2017-Nov-12 06:53N 35°37' E 139°47'0 0.0
2017-Nov-12 05:03N 35°37' E 139°47'0 0.2
2017-Nov-12 04:45N 35°37' E 139°47'0 0.0
2017-Nov-12 03:27N 35°37' E 139°47'0 0.0
2017-Nov-12 02:39N 35°37' E 139°47'0 0.0
2017-Nov-12 02:27N 35°37' E 139°47'0 0.0
2017-Nov-12 01:39N 35°37' E 139°47'0 0.2
2017-Nov-12 01:27N 35°37' E 139°47'0 0.1
2017-Nov-12 00:52N 35°37' E 139°47'0 0.0
2017-Nov-12 00:26N 35°37' E 139°47'0 0.1
2017-Nov-11 23:44N 35°37' E 139°47'0 0.0
2017-Nov-11 23:26N 35°37' E 139°47'0 0.1
2017-Nov-11 23:00N 35°37' E 139°47'2 4.1
2017-Nov-11 22:30N 35°35' E 139°48'5 9.4
2017-Nov-11 22:00N 35°32' E 139°52'713.5
2017-Nov-11 21:30N 35°26' E 139°48'613.0
2017-Nov-11 21:00N 35°20' E 139°44'611.7
2017-Nov-11 20:30N 35°15' E 139°47'511.0
2017-Nov-11 20:00N 35°09' E 139°46'510.6
2017-Nov-11 19:30N 35°04' E 139°45'612.4
2017-Nov-11 19:00N 34°58' E 139°41'815.2
2017-Nov-11 18:28N 34°51' E 139°45'1718.2
2017-Nov-11 17:33N 34°52' E 140°06'  
Track history (hours):
 
Tides and Currents Weather Stations Pressure Air Temp Water Temp Dewpoint Dewpoint Depression Visibility Wind Speed Wind Dir Waves Ship Positions

APL New York

Last reported at 2017-Nov-20 00:26 UTC. Time now 2017-Nov-24 07:13 UTC.
Position N 31°22' E 121°35'.

Length 328 m; draft 10.5 m.

Type: Ship (hazmat cat A). MMSI: 566879000.

Date/timePositionNaut miles runAvg speedWind from/ knotsBaromVisibWave heightAir tempDewpointWater temp
2017-Nov-20 00:26N 31°22' E 121°35'0 0.0
2017-Nov-19 23:59N 31°22' E 121°35'0 0.0
2017-Nov-19 23:29N 31°22' E 121°35'0 0.0
2017-Nov-19 22:59N 31°22' E 121°35'0 0.0
2017-Nov-19 22:23N 31°22' E 121°35'0 0.0
2017-Nov-19 21:59N 31°22' E 121°35'0 0.0
2017-Nov-19 21:26N 31°22' E 121°35'0 0.0
2017-Nov-19 20:59N 31°22' E 121°35'0 0.0
2017-Nov-19 20:29N 31°22' E 121°35'0 0.0
2017-Nov-19 19:56N 31°22' E 121°35'0 0.0
2017-Nov-19 19:29N 31°22' E 121°35'0 0.0
2017-Nov-19 18:59N 31°22' E 121°35'0 0.0
2017-Nov-19 18:29N 31°22' E 121°35'0 0.0
2017-Nov-19 17:59N 31°22' E 121°35'0 0.4
2017-Nov-19 17:30N 31°23' E 121°35'0 0.9
2017-Nov-19 17:00N 31°23' E 121°34'0 1.0
2017-Nov-19 16:30N 31°23' E 121°35'4 8.3
2017-Nov-19 16:00N 31°21' E 121°39'510.8
2017-Nov-19 15:30N 31°19' E 121°45'5 9.9
2017-Nov-19 15:00N 31°17' E 121°50'510.4
2017-Nov-19 14:30N 31°15' E 121°56'611.1
2017-Nov-19 14:00N 31°14' E 122°02'611.1
2017-Nov-19 13:30N 31°12' E 122°08'510.9
2017-Nov-19 13:00N 31°09' E 122°13'611.1
2017-Nov-19 12:28N 31°06' E 122°20'612.0
2017-Nov-19 11:57N 31°08' E 122°27'  
2017-Nov-12 14:06N 34°57' E 139°27'215.2
2017-Nov-12 14:00N 34°58' E 139°29'815.5
2017-Nov-12 13:30N 35°02' E 139°37'816.0
2017-Nov-12 13:00N 35°07' E 139°45'613.0
2017-Nov-12 12:30N 35°13' E 139°46'611.7
2017-Nov-12 12:00N 35°19' E 139°44'611.5
2017-Nov-12 11:30N 35°24' E 139°43'713.6
2017-Nov-12 11:00N 35°29' E 139°50'612.4
2017-Nov-12 10:30N 35°35' E 139°48'2 3.5
2017-Nov-12 09:50N 35°37' E 139°47'0 0.0
2017-Nov-12 09:20N 35°37' E 139°47'0 0.1
2017-Nov-12 08:56N 35°37' E 139°47'0 0.0
2017-Nov-12 08:26N 35°37' E 139°47'0 0.0
2017-Nov-12 07:56N 35°37' E 139°47'0 0.1
2017-Nov-12 07:26N 35°37' E 139°47'0 0.1
2017-Nov-12 06:53N 35°37' E 139°47'0 0.0
2017-Nov-12 05:03N 35°37' E 139°47'0 0.2
2017-Nov-12 04:45N 35°37' E 139°47'0 0.0
2017-Nov-12 03:27N 35°37' E 139°47'0 0.0
2017-Nov-12 02:39N 35°37' E 139°47'0 0.0
2017-Nov-12 02:27N 35°37' E 139°47'0 0.0
2017-Nov-12 01:39N 35°37' E 139°47'0 0.2
2017-Nov-12 01:27N 35°37' E 139°47'0 0.1
2017-Nov-12 00:52N 35°37' E 139°47'0 0.0
2017-Nov-12 00:26N 35°37' E 139°47'0 0.1
2017-Nov-11 23:44N 35°37' E 139°47'0 0.0
2017-Nov-11 23:26N 35°37' E 139°47'0 0.1
2017-Nov-11 23:00N 35°37' E 139°47'2 4.1
2017-Nov-11 22:30N 35°35' E 139°48'5 9.4
2017-Nov-11 22:00N 35°32' E 139°52'713.5
2017-Nov-11 21:30N 35°26' E 139°48'613.0
2017-Nov-11 21:00N 35°20' E 139°44'611.7
2017-Nov-11 20:30N 35°15' E 139°47'511.0
2017-Nov-11 20:00N 35°09' E 139°46'510.6
2017-Nov-11 19:30N 35°04' E 139°45'612.4
2017-Nov-11 19:00N 34°58' E 139°41'815.2
2017-Nov-11 18:28N 34°51' E 139°45'1718.2
2017-Nov-11 17:33N 34°52' E 140°06'  

Dump ship's entire track history